Time;durP1;ratioP1;P1;durP2;ratioP2;P2;SDS_P1;SDS_P2;PMS_P1;PMS_P2;Temp;Humidity;BMP_temperature;BMP_pressure;BME280_temperature;BME280_humidity;BME280_pressure;Samples;Min_cycle;Max_cycle;Signal;HPM_P1;HPM_P2
2022/06/03 00:02:56;;;;;;;1.90;1.20;;;;;;;18.50;47.48;100688.13;5095809;28;20209;-72
2022/06/03 00:05:52;;;;;;;2.80;1.20;;;;;;;18.47;47.36;100682.34;5082980;28;20207;-72
2022/06/03 00:08:44;;;;;;;2.20;1.13;;;;;;;18.46;47.20;100680.69;5066676;28;20637;-72
2022/06/03 00:11:28;;;;;;;2.10;1.20;;;;;;;18.42;47.46;100680.22;5092333;28;20299;-72
2022/06/03 00:14:35;;;;;;;3.70;1.17;;;;;;;18.38;47.69;100674.41;5091729;28;20697;-72
2022/06/03 00:17:13;;;;;;;2.30;1.30;;;;;;;18.31;47.94;100670.84;5054722;28;20237;-73
2022/06/03 00:19:54;;;;;;;2.30;1.20;;;;;;;18.32;47.59;100675.19;5092416;28;20309;-73
2022/06/03 00:22:36;;;;;;;2.73;1.20;;;;;;;18.28;47.70;100673.09;5091350;28;20631;-72
2022/06/03 00:25:26;;;;;;;3.30;1.07;;;;;;;18.26;47.79;100673.28;5094988;28;20198;-72
2022/06/03 00:28:11;;;;;;;3.20;1.30;;;;;;;18.23;47.74;100670.16;5086772;28;20685;-72
2022/06/03 00:30:51;;;;;;;3.27;1.23;;;;;;;18.22;47.77;100665.78;5092065;28;20738;-72
2022/06/03 00:33:41;;;;;;;2.63;1.10;;;;;;;18.21;47.99;100673.00;5099119;28;20237;-72
2022/06/03 00:36:41;;;;;;;3.60;1.30;;;;;;;18.18;47.80;100678.78;5091551;28;20701;-72
2022/06/03 00:39:42;;;;;;;2.87;1.20;;;;;;;18.17;47.64;100681.66;5091232;28;20322;-72
2022/06/03 00:42:32;;;;;;;2.00;1.03;;;;;;;18.12;48.07;100684.09;5064507;28;20732;-72
2022/06/03 00:45:33;;;;;;;2.60;1.20;;;;;;;18.06;48.02;100677.63;5080029;28;20302;-72
2022/06/03 00:48:31;;;;;;;2.77;1.40;;;;;;;18.02;48.24;100677.19;5091459;28;20230;-72
2022/06/03 00:51:22;;;;;;;2.17;1.23;;;;;;;17.99;47.96;100677.56;5091438;28;20406;-72
2022/06/03 00:54:29;;;;;;;4.10;1.43;;;;;;;17.96;48.20;100674.44;5046946;28;20617;-72
2022/06/03 00:57:25;;;;;;;3.83;1.20;;;;;;;17.94;48.29;100671.94;5092261;28;20268;-72
2022/06/03 01:00:11;;;;;;;4.20;1.37;;;;;;;17.92;48.51;100681.22;5092075;28;20234;-71
2022/06/03 01:03:04;;;;;;;2.37;1.50;;;;;;;17.90;48.35;100680.56;5090791;28;20218;-72
2022/06/03 01:05:40;;;;;;;1.83;1.10;;;;;;;17.91;48.18;100679.56;5081245;28;20256;-72
2022/06/03 01:08:16;;;;;;;2.20;1.30;;;;;;;17.90;48.39;100680.56;5091686;28;20298;-72
2022/06/03 01:11:09;;;;;;;2.10;1.10;;;;;;;17.87;48.42;100675.56;5091757;28;20226;-72
2022/06/03 01:14:00;;;;;;;3.33;1.20;;;;;;;17.84;48.35;100681.34;5091029;28;20202;-72
2022/06/03 01:16:43;;;;;;;3.33;1.33;;;;;;;17.80;48.67;100686.25;5091403;28;20221;-72
2022/06/03 01:19:49;;;;;;;3.00;1.23;;;;;;;17.78;48.57;100690.94;5091201;28;20230;-72
2022/06/03 01:22:40;;;;;;;2.67;1.23;;;;;;;17.76;48.60;100684.97;5090956;28;20206;-73
2022/06/03 01:25:42;;;;;;;3.80;1.20;;;;;;;17.75;48.39;100677.94;5091788;28;20253;-72
2022/06/03 01:28:46;;;;;;;3.27;1.23;;;;;;;17.71;48.73;100678.50;5083334;28;20301;-72
2022/06/03 01:31:48;;;;;;;2.17;1.30;;;;;;;17.67;48.70;100676.22;5093833;28;20208;-72
2022/06/03 01:34:35;;;;;;;3.40;1.23;;;;;;;17.67;48.77;100678.88;5092550;28;20514;-72
2022/06/03 01:37:14;;;;;;;1.70;1.10;;;;;;;17.66;48.67;100679.91;5091022;28;20276;-72
2022/06/03 01:40:05;;;;;;;2.50;1.30;;;;;;;17.66;48.94;100687.13;5076173;28;20222;-72
2022/06/03 01:43:08;;;;;;;3.67;1.30;;;;;;;17.57;49.13;100675.66;5090641;28;20309;-72
2022/06/03 01:45:57;;;;;;;2.17;1.23;;;;;;;17.57;48.92;100675.66;5094596;28;20307;-72
2022/06/03 01:49:11;;;;;;;1.40;1.00;;;;;;;17.56;48.87;100667.78;5083383;28;20663;-72
2022/06/03 01:51:59;;;;;;;2.13;1.20;;;;;;;17.53;48.83;100673.50;5094766;28;20289;-72
2022/06/03 01:55:08;;;;;;;5.87;1.20;;;;;;;17.50;49.18;100669.34;5094774;28;20202;-72
2022/06/03 01:58:07;;;;;;;2.20;1.00;;;;;;;17.46;49.23;100673.44;5089208;28;20199;-71
2022/06/03 02:00:37;;;;;;;3.00;1.33;;;;;;;17.48;48.94;100663.38;5061016;28;20241;-71
2022/06/03 02:03:28;;;;;;;2.67;1.60;;;;;;;17.47;49.13;100659.03;5090082;28;20306;-71
2022/06/03 02:06:47;;;;;;;3.00;1.27;;;;;;;17.44;49.03;100655.88;5098993;28;20207;-71
2022/06/03 02:10:03;;;;;;;3.63;1.23;;;;;;;17.42;49.01;100656.06;5073930;28;20298;-72
2022/06/03 02:12:57;;;;;;;2.57;1.50;;;;;;;17.40;49.20;100652.75;5093479;28;20298;-72
2022/06/03 02:15:57;;;;;;;1.30;1.00;;;;;;;17.35;49.32;100663.19;5094393;28;20279;-72
2022/06/03 02:18:47;;;;;;;1.70;1.27;;;;;;;17.35;49.70;100665.03;5053578;28;20304;-72
2022/06/03 02:21:45;;;;;;;2.43;1.40;;;;;;;17.33;49.42;100659.06;5076134;28;20213;-72
2022/06/03 02:24:45;;;;;;;1.80;1.20;;;;;;;17.30;49.66;100653.03;5079008;28;20393;-73
2022/06/03 02:27:33;;;;;;;4.17;1.50;;;;;;;17.29;49.58;100653.22;5095396;28;20242;-72
2022/06/03 02:30:33;;;;;;;2.73;1.43;;;;;;;17.27;49.59;100657.94;5093743;28;20742;-73
2022/06/03 02:33:47;;;;;;;2.63;1.57;;;;;;;17.25;49.75;100651.94;5081449;28;20202;-72
2022/06/03 02:36:59;;;;;;;4.23;1.40;;;;;;;17.21;49.93;100647.97;5065507;28;20249;-70
2022/06/03 02:39:55;;;;;;;1.77;1.07;;;;;;;17.18;50.17;100654.53;5090318;28;20262;-71
2022/06/03 02:42:54;;;;;;;3.50;1.27;;;;;;;17.17;49.85;100650.19;5087605;28;20207;-71
2022/06/03 02:46:06;;;;;;;1.87;1.37;;;;;;;17.16;50.09;100653.03;5075932;28;20612;-71
2022/06/03 02:48:57;;;;;;;2.63;1.40;;;;;;;17.10;50.10;100649.28;5076112;28;20230;-71
2022/06/03 02:51:44;;;;;;;2.53;1.10;;;;;;;17.08;50.39;100643.25;5092902;28;20234;-72
2022/06/03 02:54:30;;;;;;;3.37;1.27;;;;;;;17.07;50.43;100646.13;5093526;28;20213;-71
2022/06/03 02:57:24;;;;;;;1.80;1.10;;;;;;;17.05;50.32;100650.84;5093503;28;20234;-71
2022/06/03 03:00:09;;;;;;;4.23;1.40;;;;;;;17.03;50.47;100652.88;5094081;28;20458;-71
2022/06/03 03:02:49;;;;;;;2.63;1.23;;;;;;;17.04;50.32;100657.22;5094043;28;20230;-71
2022/06/03 03:05:28;;;;;;;3.87;1.47;;;;;;;16.98;50.72;100652.59;5094040;28;20210;-71
2022/06/03 03:08:36;;;;;;;3.13;1.60;;;;;;;16.97;50.75;100646.44;5097596;28;20233;-73
2022/06/03 03:11:24;;;;;;;4.20;1.90;;;;;;;16.96;50.78;100647.44;5072564;28;20488;-73
2022/06/03 03:14:51;;;;;;;2.27;1.20;;;;;;;16.96;50.82;100654.66;5079827;28;20231;-72
2022/06/03 03:17:49;;;;;;;4.23;1.40;;;;;;;16.92;50.85;100654.19;5011120;28;20220;-72
2022/06/03 03:20:56;;;;;;;2.53;1.50;;;;;;;16.86;51.07;100655.75;5009739;28;20745;-72
2022/06/03 03:23:49;;;;;;;2.53;1.40;;;;;;;16.82;51.09;100661.66;5052608;28;20208;-72
2022/06/03 03:26:27;;;;;;;1.77;1.03;;;;;;;16.87;51.27;100653.91;5092787;28;20743;-72
2022/06/03 03:29:23;;;;;;;3.53;1.33;;;;;;;16.85;51.15;100647.91;5091899;28;20568;-72
2022/06/03 03:32:02;;;;;;;3.33;1.87;;;;;;;16.85;51.38;100647.91;5093120;28;20776;-72
2022/06/03 03:34:58;;;;;;;4.70;1.47;;;;;;;16.87;50.85;100646.72;5092356;28;20321;-72
2022/06/03 03:37:56;;;;;;;3.87;2.00;;;;;;;16.86;51.02;100649.56;5089176;28;20229;-72
2022/06/03 03:41:05;;;;;;;3.43;1.77;;;;;;;16.86;51.24;100641.53;5082776;28;20234;-72
2022/06/03 03:43:54;;;;;;;2.03;1.27;;;;;;;16.85;51.34;100639.88;5042542;28;20293;-72
2022/06/03 03:46:49;;;;;;;2.83;1.53;;;;;;;16.84;51.29;100643.56;5089872;28;20582;-72
2022/06/03 03:49:40;;;;;;;2.43;1.43;;;;;;;16.83;51.45;100640.03;5092155;28;20349;-72
2022/06/03 03:52:33;;;;;;;4.30;1.60;;;;;;;16.85;51.87;100632.66;5092016;28;20586;-71
2022/06/03 03:55:30;;;;;;;2.47;1.50;;;;;;;16.86;51.63;100636.19;5091314;28;20293;-73
2022/06/03 03:58:35;;;;;;;3.10;1.40;;;;;;;16.87;51.79;100637.84;5092134;28;20555;-71
2022/06/03 04:01:29;;;;;;;6.67;1.90;;;;;;;16.86;52.12;100637.00;5091546;28;20658;-72
2022/06/03 04:04:27;;;;;;;4.90;1.87;;;;;;;16.90;51.76;100629.41;5074251;28;20207;-71
2022/06/03 04:07:34;;;;;;;2.77;1.57;;;;;;;16.91;51.79;100629.22;5081592;28;20199;-71
2022/06/03 04:10:49;;;;;;;4.37;2.63;;;;;;;16.89;52.29;100639.28;5093935;28;20226;-70
2022/06/03 04:14:03;;;;;;;4.87;2.30;;;;;;;16.86;52.27;100628.97;5087722;28;20276;-71
2022/06/03 04:17:07;;;;;;;2.07;1.53;;;;;;;16.93;52.54;100629.88;5092196;28;20664;-71
2022/06/03 04:20:02;;;;;;;4.60;1.60;;;;;;;16.96;52.59;100622.50;5091612;28;20268;-71
2022/06/03 04:23:21;;;;;;;2.60;1.50;;;;;;;16.97;52.46;100616.97;5068577;28;20222;-72
2022/06/03 04:26:24;;;;;;;2.17;1.47;;;;;;;17.02;52.76;100627.09;5079229;28;20385;-71
2022/06/03 04:29:34;;;;;;;4.63;1.70;;;;;;;17.05;52.60;100621.38;5089140;28;20712;-71
2022/06/03 04:32:36;;;;;;;7.23;1.50;;;;;;;17.10;52.57;100624.31;5093564;28;20206;-71
2022/06/03 04:35:34;;;;;;;3.67;1.30;;;;;;;17.12;52.42;100622.31;5091592;28;20289;-71
2022/06/03 04:38:45;;;;;;;2.73;1.27;;;;;;;17.16;52.70;100623.56;5082134;28;20285;-72
2022/06/03 04:41:43;;;;;;;4.27;1.57;;;;;;;17.15;52.67;100621.94;5088493;28;20264;-72
2022/06/03 04:44:46;;;;;;;5.17;1.77;;;;;;;17.16;52.72;100607.50;5052392;28;20206;-72
2022/06/03 04:48:06;;;;;;;4.57;1.60;;;;;;;17.21;52.87;100615.81;5087282;28;20647;-72
2022/06/03 04:51:15;;;;;;;3.83;1.27;;;;;;;17.25;52.44;100611.72;5070815;28;20235;-72
2022/06/03 04:54:20;;;;;;;4.20;2.33;;;;;;;17.24;52.77;100608.22;5060451;28;20204;-72
2022/06/03 04:57:17;;;;;;;3.00;1.70;;;;;;;17.27;52.61;100602.50;5062089;28;20294;-72
2022/06/03 05:00:20;;;;;;;6.13;1.80;;;;;;;17.28;52.91;100604.16;5059275;28;20237;-72
2022/06/03 05:03:42;;;;;;;2.20;1.23;;;;;;;17.33;52.72;100597.41;5070661;28;20211;-72
2022/06/03 05:06:48;;;;;;;5.43;1.60;;;;;;;17.33;52.55;100598.22;5009055;28;20700;-72
2022/06/03 05:10:11;;;;;;;3.17;1.60;;;;;;;17.35;52.62;100603.38;5071990;28;20290;-71
2022/06/03 05:13:16;;;;;;;5.27;1.80;;;;;;;17.37;52.56;100606.72;5042932;28;20291;-72
2022/06/03 05:16:27;;;;;;;6.97;2.20;;;;;;;17.39;52.66;100608.19;5068081;28;20207;-71
2022/06/03 05:19:43;;;;;;;4.53;1.53;;;;;;;17.41;52.23;100595.44;5059397;28;20215;-72
2022/06/03 05:22:35;;;;;;;2.53;1.20;;;;;;;17.41;52.47;100587.41;5037099;28;20211;-71
2022/06/03 05:25:44;;;;;;;4.17;1.70;;;;;;;17.47;52.68;100588.50;5068279;28;20207;-71
2022/06/03 05:28:35;;;;;;;6.77;1.80;;;;;;;17.52;52.76;100589.56;5071964;28;20208;-71
2022/06/03 05:31:43;;;;;;;3.53;1.67;;;;;;;17.55;52.45;100591.88;5072058;28;20207;-71
2022/06/03 05:34:40;;;;;;;2.57;1.23;;;;;;;17.59;52.35;100579.72;5053440;28;20217;-71
2022/06/03 05:37:45;;;;;;;2.67;1.23;;;;;;;17.61;52.81;100599.16;5071601;28;20243;-71
2022/06/03 05:40:48;;;;;;;5.00;2.00;;;;;;;17.68;52.33;100612.66;5055002;28;20267;-72
2022/06/03 05:43:28;;;;;;;6.50;1.93;;;;;;;17.73;52.48;100615.59;5002804;28;20265;-72
2022/06/03 05:46:11;;;;;;;5.80;1.87;;;;;;;17.80;51.83;100610.31;5070826;28;20203;-72
2022/06/03 05:48:51;;;;;;;3.13;1.57;;;;;;;17.83;51.93;100610.75;5082427;28;20236;-73
2022/06/03 05:51:43;;;;;;;4.17;1.43;;;;;;;17.86;51.95;100605.00;5078437;28;20282;-72
2022/06/03 05:54:26;;;;;;;6.20;2.13;;;;;;;17.90;51.87;100611.66;5089423;28;20298;-72
2022/06/03 05:57:04;;;;;;;2.90;1.43;;;;;;;17.93;51.85;100605.91;5091385;28;20213;-72
2022/06/03 06:00:10;;;;;;;3.40;1.70;;;;;;;17.97;51.49;100600.97;5086657;28;20397;-72
2022/06/03 06:02:44;;;;;;;6.07;1.70;;;;;;;18.02;51.46;100609.28;5043377;28;20210;-72
2022/06/03 06:05:29;;;;;;;3.17;1.63;;;;;;;18.12;51.62;100625.06;5092102;28;20306;-71
2022/06/03 06:08:10;;;;;;;4.97;1.80;;;;;;;18.21;50.96;100622.03;5095323;28;20211;-73
2022/06/03 06:10:50;;;;;;;2.30;1.33;;;;;;;18.22;50.99;100626.38;5102343;28;20210;-73
2022/06/03 06:13:28;;;;;;;5.17;1.47;;;;;;;18.23;51.32;100624.50;5098843;28;20234;-73
2022/06/03 06:16:06;;;;;;;2.43;1.40;;;;;;;18.27;51.01;100632.00;5091501;28;20229;-73
2022/06/03 06:18:57;;;;;;;5.07;1.50;;;;;;;18.32;50.99;100640.28;5091645;28;20222;-72
2022/06/03 06:21:46;;;;;;;4.40;1.53;;;;;;;18.35;50.86;100631.84;5092056;28;20276;-71
2022/06/03 06:24:18;;;;;;;3.87;1.60;;;;;;;18.41;50.90;100633.75;5079731;28;20195;-71
2022/06/03 06:27:25;;;;;;;5.50;1.50;;;;;;;18.48;50.55;100630.28;5095006;28;20572;-71
2022/06/03 06:30:18;;;;;;;5.77;1.50;;;;;;;18.52;50.81;100635.06;5094509;28;20267;-72
2022/06/03 06:36:59;;;;;;;3.57;1.20;;;;;;;18.59;50.81;100643.22;5085478;28;20210;-71
2022/06/03 06:39:52;;;;;;;3.67;1.60;;;;;;;18.65;51.07;100642.41;5089550;28;20249;-71
2022/06/03 06:42:33;;;;;;;8.53;2.20;;;;;;;18.68;50.39;100642.03;5092013;28;20724;-71
2022/06/03 06:45:21;;;;;;;8.60;1.70;;;;;;;18.71;50.15;100642.47;5095126;28;20214;-72
2022/06/03 06:47:56;;;;;;;4.80;1.70;;;;;;;18.77;50.13;100641.69;5094519;28;20750;-72
2022/06/03 06:50:27;;;;;;;6.93;1.40;;;;;;;18.77;49.71;100636.31;5094540;28;20608;-71
2022/06/03 06:53:15;;;;;;;2.20;1.23;;;;;;;18.81;50.12;100633.22;5080709;28;20254;-72
2022/06/03 06:55:55;;;;;;;3.80;1.37;;;;;;;18.83;49.83;100629.31;5094947;28;20198;-72
2022/06/03 06:58:43;;;;;;;10.17;1.60;;;;;;;18.88;49.83;100618.81;5094486;28;20205;-72
2022/06/03 07:01:18;;;;;;;3.77;1.40;;;;;;;18.94;49.40;100618.00;5094002;28;20222;-71
2022/06/03 07:03:56;;;;;;;3.73;1.73;;;;;;;19.00;49.55;100614.50;5093873;28;20199;-72
2022/06/03 07:06:39;;;;;;;2.47;1.20;;;;;;;19.05;49.31;100611.25;5094267;28;20290;-73
2022/06/03 07:09:29;;;;;;;5.20;1.63;;;;;;;19.12;49.11;100602.19;5089861;28;20720;-72
2022/06/03 07:12:05;;;;;;;5.47;1.33;;;;;;;19.16;49.07;100608.81;5085299;28;20233;-72
2022/06/03 07:14:57;;;;;;;4.10;1.63;;;;;;;19.21;49.20;100594.75;5094154;28;20209;-72
2022/06/03 07:20:35;;;;;;;5.50;1.73;;;;;;;19.38;49.15;100592.53;5097544;28;20203;-72
2022/06/03 07:23:11;;;;;;;3.47;1.50;;;;;;;19.48;48.44;100604.59;5091734;28;20210;-72
2022/06/03 07:25:58;;;;;;;5.70;1.70;;;;;;;19.59;48.20;100586.22;5092963;28;20240;-72
2022/06/03 07:28:38;;;;;;;3.00;1.50;;;;;;;19.66;48.81;100590.59;5092771;28;20294;-72
2022/06/03 07:31:15;;;;;;;4.70;1.50;;;;;;;19.72;47.96;100576.31;5093085;28;20214;-72
2022/06/03 07:33:53;;;;;;;3.93;1.50;;;;;;;19.80;48.05;100569.88;5093008;28;20662;-72
2022/06/03 07:36:29;;;;;;;3.20;1.40;;;;;;;19.83;48.05;100570.31;5092717;28;20198;-72
2022/06/03 07:39:03;;;;;;;6.60;1.73;;;;;;;19.84;48.33;100571.16;5092816;28;20313;-71
2022/06/03 07:41:38;;;;;;;6.43;1.43;;;;;;;19.92;47.72;100562.88;5093098;28;20254;-72
2022/06/03 07:44:17;;;;;;;5.83;1.50;;;;;;;20.00;46.64;100572.59;5091825;28;20214;-72
2022/06/03 07:46:52;;;;;;;7.87;2.00;;;;;;;20.03;46.40;100572.19;5091153;28;20215;-72
2022/06/03 07:49:22;;;;;;;5.13;1.60;;;;;;;20.07;45.83;100573.41;5088121;28;20238;-72
2022/06/03 07:51:54;;;;;;;5.40;1.40;;;;;;;20.07;46.78;100574.25;5092733;28;20275;-73
2022/06/03 07:54:28;;;;;;;6.30;1.67;;;;;;;20.09;46.03;100566.81;5091539;28;20306;-72
2022/06/03 07:57:07;;;;;;;10.77;1.80;;;;;;;20.13;46.15;100556.47;5092870;28;20306;-72
2022/06/03 07:59:38;;;;;;;6.40;1.87;;;;;;;20.17;45.89;100552.28;5092275;28;20207;-72
2022/06/03 08:02:17;;;;;;;3.73;1.50;;;;;;;20.24;45.95;100545.03;5091186;28;20253;-72
2022/06/03 08:04:50;;;;;;;4.20;1.67;;;;;;;20.31;46.41;100537.81;5085776;28;20199;-71
2022/06/03 08:13:04;;;;;;;5.67;1.47;;;;;;;20.56;46.39;100546.88;5090781;28;20199;-72
2022/06/03 08:15:36;;;;;;;5.73;1.70;;;;;;;20.71;45.50;100545.78;5092125;28;20203;-72
2022/06/03 08:18:07;;;;;;;2.67;1.53;;;;;;;20.85;45.82;100537.44;5092556;28;20742;-72
2022/06/03 08:20:41;;;;;;;3.30;1.53;;;;;;;20.97;45.96;100537.63;5092703;28;20656;-72
2022/06/03 08:23:10;;;;;;;2.50;1.53;;;;;;;21.02;45.01;100529.72;5092267;28;20237;-72
2022/06/03 08:25:42;;;;;;;4.23;1.77;;;;;;;21.14;44.69;100528.00;5092043;28;20199;-72
2022/06/03 08:28:16;;;;;;;3.53;1.63;;;;;;;21.20;44.91;100524.44;5092052;28;20202;-72
2022/06/03 08:30:47;;;;;;;3.83;1.60;;;;;;;21.29;45.43;100520.47;5078588;28;20199;-72
2022/06/03 08:33:19;;;;;;;6.07;1.90;;;;;;;21.32;45.11;100520.03;5091530;28;20198;-72
2022/06/03 08:35:50;;;;;;;3.77;1.87;;;;;;;21.44;45.15;100539.06;5093044;28;20207;-72
2022/06/03 08:38:20;;;;;;;4.93;1.90;;;;;;;21.54;44.16;100525.09;5092327;28;20229;-72
2022/06/03 08:40:58;;;;;;;4.63;1.57;;;;;;;21.63;43.38;100524.63;5091452;28;20206;-70
2022/06/03 08:43:33;;;;;;;3.90;1.43;;;;;;;21.70;44.03;100525.38;5091857;28;20206;-72
2022/06/03 08:46:12;;;;;;;6.33;2.17;;;;;;;21.73;44.66;100527.63;5092109;28;20210;-73
2022/06/03 08:48:43;;;;;;;7.57;1.97;;;;;;;21.74;44.48;100531.16;5090389;28;20242;-73
2022/06/03 08:51:17;;;;;;;7.73;2.00;;;;;;;21.81;44.38;100531.13;5091412;28;20254;-72
2022/06/03 08:53:50;;;;;;;7.73;1.90;;;;;;;21.86;44.05;100526.72;5090776;28;20289;-72
2022/06/03 08:56:23;;;;;;;3.77;1.87;;;;;;;22.02;43.87;100525.34;5091586;28;20645;-72
2022/06/03 08:58:58;;;;;;;8.97;2.00;;;;;;;22.16;42.88;100526.06;5092413;28;20226;-72
2022/06/03 09:01:35;;;;;;;2.33;1.30;;;;;;;22.27;43.06;100525.31;5099800;28;20579;-71
2022/06/03 09:04:15;;;;;;;2.37;1.20;;;;;;;22.30;44.02;100516.78;5096627;28;20217;-73
2022/06/03 09:06:57;;;;;;;3.17;1.57;;;;;;;22.33;43.17;100522.56;5092322;28;20610;-72
2022/06/03 09:09:32;;;;;;;5.00;2.08;;;;;;;22.48;42.68;100514.91;5091564;28;20209;-72
2022/06/03 09:12:13;;;;;;;6.87;1.63;;;;;;;22.60;42.33;100515.00;5082429;28;20288;-72
2022/06/03 09:14:43;;;;;;;6.65;1.70;;;;;;;22.64;42.19;100508.06;5092268;28;20615;-72
2022/06/03 09:17:36;;;;;;;4.20;1.40;;;;;;;22.76;41.96;100505.47;5093006;28;20234;-72
2022/06/03 09:20:12;;;;;;;4.00;1.83;;;;;;;22.86;42.42;100503.91;5092463;28;20724;-73
2022/06/03 09:22:40;;;;;;;7.28;1.73;;;;;;;22.95;42.45;100500.88;5091102;28;20279;-73
2022/06/03 09:25:12;;;;;;;5.78;1.73;;;;;;;23.04;42.41;100504.91;5090979;28;20295;-73
2022/06/03 09:27:42;;;;;;;7.47;1.80;;;;;;;23.13;42.49;100492.72;5096461;28;20215;-73
2022/06/03 09:30:14;;;;;;;4.80;2.10;;;;;;;23.22;42.48;100496.72;5086347;28;20339;-73
2022/06/03 09:32:49;;;;;;;3.63;1.88;;;;;;;23.24;43.04;100497.31;5090740;28;20205;-73
2022/06/03 09:35:21;;;;;;;6.20;1.77;;;;;;;23.27;42.24;100502.28;5091416;28;20214;-73
2022/06/03 09:37:51;;;;;;;5.75;1.92;;;;;;;23.29;43.05;100491.25;5088354;28;20724;-73
2022/06/03 09:40:23;;;;;;;3.05;1.77;;;;;;;23.33;42.60;100504.06;5087392;28;20268;-72
2022/06/03 09:42:54;;;;;;;6.20;1.95;;;;;;;23.41;42.27;100513.72;5090659;28;20226;-73
2022/06/03 09:45:24;;;;;;;3.30;1.63;;;;;;;23.53;43.29;100498.38;5092668;28;20238;-73
2022/06/03 09:47:53;;;;;;;4.65;1.85;;;;;;;23.56;42.33;100495.22;5092139;28;20265;-73
2022/06/03 09:50:25;;;;;;;3.90;1.60;;;;;;;23.63;42.48;100491.34;5093245;28;20210;-73
2022/06/03 09:53:01;;;;;;;8.05;2.05;;;;;;;23.74;42.84;100489.72;5090763;28;20253;-73
2022/06/03 09:55:33;;;;;;;4.32;1.85;;;;;;;23.77;42.83;100491.13;5084790;28;20290;-73
2022/06/03 09:58:03;;;;;;;7.65;1.63;;;;;;;23.84;43.01;100481.00;5103485;28;20247;-73
2022/06/03 10:00:37;;;;;;;4.95;2.00;;;;;;;23.92;42.33;100475.25;5094277;28;20256;-73
2022/06/03 10:03:06;;;;;;;3.92;2.13;;;;;;;23.92;42.35;100473.34;5094613;28;20686;-73
2022/06/03 10:05:35;;;;;;;4.90;2.42;;;;;;;24.16;42.40;100467.94;5097164;28;20195;-72
2022/06/03 10:08:05;;;;;;;4.53;2.00;;;;;;;24.16;41.90;100467.94;5094543;28;20207;-73
2022/06/03 10:13:23;;;;;;;3.90;2.05;;;;;;;23.97;43.04;100467.25;5091189;28;20262;-72
2022/06/03 10:15:56;;;;;;;13.48;2.50;;;;;;;23.94;42.66;100456.88;5094943;28;20298;-72
2022/06/03 10:18:30;;;;;;;6.03;2.42;;;;;;;23.85;42.82;100464.53;5095024;28;20203;-71
2022/06/03 10:21:30;;;;;;;3.65;2.17;;;;;;;23.87;43.08;100467.81;5095432;28;20224;-72
2022/06/03 10:24:00;;;;;;;6.13;3.00;;;;;;;23.85;43.38;100477.22;5074027;28;20728;-72
2022/06/03 10:26:43;;;;;;;3.67;2.33;;;;;;;23.78;43.46;100482.75;5095591;28;20665;-72
2022/06/03 10:29:21;;;;;;;7.75;2.58;;;;;;;23.79;43.38;100480.88;5084537;28;20311;-72
2022/06/03 10:31:53;;;;;;;9.15;2.38;;;;;;;23.78;43.73;100498.19;5095248;28;20214;-72
2022/06/03 10:34:34;;;;;;;3.05;2.13;;;;;;;23.75;43.63;100498.69;5102702;28;20216;-73
2022/06/03 10:37:07;;;;;;;7.53;2.47;;;;;;;23.68;43.18;100489.81;5094679;28;20209;-73
2022/06/03 10:39:35;;;;;;;11.68;6.90;;;;;;;23.59;44.10;100484.75;5094073;28;20713;-73
2022/06/03 10:42:04;;;;;;;7.45;4.00;;;;;;;23.58;44.31;100477.69;5093583;28;20246;-72
2022/06/03 10:44:36;;;;;;;6.68;2.67;;;;;;;23.53;44.79;100485.69;5094098;28;20613;-72
2022/06/03 10:47:06;;;;;;;4.65;3.00;;;;;;;23.60;44.77;100480.97;5093863;28;20565;-73
2022/06/03 10:49:38;;;;;;;7.90;2.80;;;;;;;23.66;44.87;100479.22;5093374;28;20725;-73
2022/06/03 11:03:26;;;;;;;6.05;2.65;;;;;;;24.48;44.02;100461.06;5080784;28;20290;-73
2022/06/03 11:05:57;;;;;;;5.10;2.38;;;;;;;24.60;43.22;100459.16;5079285;28;20211;-72
2022/06/03 11:08:26;;;;;;;4.47;2.30;;;;;;;24.79;43.01;100451.69;5093636;28;20246;-73
2022/06/03 11:10:57;;;;;;;4.93;2.30;;;;;;;24.90;43.40;100445.34;5092450;28;20638;-73
2022/06/03 11:13:28;;;;;;;4.72;2.25;;;;;;;25.06;42.72;100438.38;5093614;28;20203;-74
2022/06/03 11:16:11;;;;;;;8.48;2.60;;;;;;;25.17;42.33;100429.34;5094335;28;20213;-72
2022/06/03 11:18:41;;;;;;;7.05;2.65;;;;;;;25.23;42.20;100419.41;5094017;28;20582;-72
2022/06/03 11:21:20;;;;;;;10.68;2.50;;;;;;;25.32;41.71;100417.94;5093259;28;20675;-72
2022/06/03 11:23:55;;;;;;;5.53;2.13;;;;;;;25.44;42.20;100410.53;5093097;28;20207;-72
2022/06/03 11:26:28;;;;;;;5.03;2.10;;;;;;;25.51;42.17;100404.94;5093620;28;20207;-72
2022/06/03 11:29:04;;;;;;;3.25;2.20;;;;;;;25.50;42.22;100404.13;5095243;28;20228;-72
2022/06/03 11:31:37;;;;;;;7.10;2.38;;;;;;;25.58;42.20;100400.16;5095842;28;20587;-72
2022/06/03 11:34:14;;;;;;;8.30;2.40;;;;;;;25.70;42.28;100404.44;5092996;28;20222;-72
2022/06/03 11:36:46;;;;;;;6.28;2.33;;;;;;;25.83;42.51;100401.38;5091214;28;20210;-72
2022/06/03 11:39:27;;;;;;;8.35;1.92;;;;;;;25.84;41.25;100397.59;5092507;28;20213;-72
2022/06/03 11:41:58;;;;;;;4.25;2.17;;;;;;;25.88;41.56;100394.38;5091022;28;20213;-73
2022/06/03 11:44:36;;;;;;;3.90;2.20;;;;;;;26.04;41.12;100390.78;5092486;28;20345;-72
2022/06/03 11:47:12;;;;;;;10.25;2.30;;;;;;;26.04;41.54;100388.88;5095617;28;20510;-73
2022/06/03 11:49:40;;;;;;;4.57;2.08;;;;;;;25.88;42.67;100378.06;5101927;28;20257;-73
2022/06/03 11:52:08;;;;;;;5.22;2.38;;;;;;;25.81;41.72;100375.53;5092823;28;20264;-73
2022/06/03 11:54:39;;;;;;;4.75;2.30;;;;;;;25.60;42.71;100381.75;5092188;28;20297;-73
2022/06/03 11:57:07;;;;;;;8.20;2.38;;;;;;;25.62;43.12;100374.19;5090978;28;20210;-73
2022/06/03 11:59:41;;;;;;;6.25;2.20;;;;;;;25.64;43.32;100362.00;5093280;28;20242;-73
2022/06/03 12:02:16;;;;;;;8.38;2.65;;;;;;;25.59;42.74;100364.66;5092878;28;20203;-73
2022/06/03 12:04:50;;;;;;;5.88;2.10;;;;;;;25.66;42.43;100359.88;5100271;28;20278;-73
2022/06/03 12:07:42;;;;;;;7.35;2.08;;;;;;;25.65;42.82;100360.94;5092516;28;20245;-72
2022/06/03 12:10:16;;;;;;;4.65;2.30;;;;;;;25.71;43.29;100357.22;5082137;28;20209;-72
2022/06/03 12:15:49;;;;;;;5.15;2.42;;;;;;;25.70;43.31;100352.84;5093979;28;20276;-72
2022/06/03 12:18:49;;;;;;;4.45;2.55;;;;;;;25.64;42.99;100351.13;5093221;28;20210;-72
2022/06/03 12:21:49;;;;;;;5.72;2.25;;;;;;;25.52;44.13;100352.28;5087579;28;20261;-74
2022/06/03 12:24:27;;;;;;;5.18;2.30;;;;;;;25.47;44.11;100350.31;5080581;28;20241;-73
2022/06/03 12:26:59;;;;;;;6.75;2.75;;;;;;;25.45;44.12;100352.44;5092979;28;20217;-73
2022/06/03 12:29:36;;;;;;;5.88;2.03;;;;;;;25.35;43.43;100363.13;5093156;28;20598;-72
2022/06/03 12:32:13;;;;;;;11.68;3.03;;;;;;;25.33;43.43;100357.16;5093278;28;20289;-73
2022/06/03 12:34:41;;;;;;;7.80;2.70;;;;;;;25.30;43.40;100360.38;5095139;28;20203;-73
2022/06/03 12:37:24;;;;;;;6.78;2.20;;;;;;;25.20;43.72;100350.16;5096721;28;20203;-73
2022/06/03 12:40:02;;;;;;;3.78;2.30;;;;;;;25.15;43.90;100363.66;5092447;28;20650;-73
2022/06/03 12:42:40;;;;;;;4.40;2.30;;;;;;;25.09;44.45;100360.03;5091942;28;20715;-73
2022/06/03 12:45:28;;;;;;;5.00;2.33;;;;;;;25.08;44.40;100362.97;5104377;28;20228;-72
2022/06/03 12:47:56;;;;;;;4.50;2.20;;;;;;;25.03;44.47;100376.47;5102635;28;20272;-72
2022/06/03 12:50:54;;;;;;;7.05;2.83;;;;;;;25.03;44.70;100379.19;5092869;28;20234;-72
2022/06/03 12:53:45;;;;;;;7.18;2.78;;;;;;;24.98;44.67;100393.47;5091024;28;20385;-73
2022/06/03 12:56:25;;;;;;;5.70;2.95;;;;;;;24.96;44.91;100387.47;5093584;28;20207;-72
2022/06/03 12:59:00;;;;;;;3.97;2.70;;;;;;;24.86;45.19;100402.72;5093043;28;20207;-72
2022/06/03 13:01:51;;;;;;;3.50;2.35;;;;;;;24.83;44.90;100405.91;5080691;28;20616;-72
2022/06/03 13:04:44;;;;;;;4.05;2.35;;;;;;;24.78;45.31;100401.22;5091267;28;20219;-73
2022/06/03 13:07:35;;;;;;;4.35;2.42;;;;;;;24.73;45.30;100403.81;5090714;28;20210;-73
2022/06/03 13:10:28;;;;;;;5.45;3.20;;;;;;;24.70;45.70;100407.03;5081388;28;20262;-72
2022/06/03 13:13:17;;;;;;;8.80;3.38;;;;;;;24.62;45.68;100408.25;5092720;28;20242;-73
2022/06/03 13:15:50;;;;;;;6.68;2.70;;;;;;;24.55;45.72;100409.44;5093365;28;20289;-72
2022/06/03 13:18:36;;;;;;;7.03;2.40;;;;;;;24.50;45.63;100417.47;5093397;28;20653;-72
2022/06/03 13:21:17;;;;;;;9.80;3.92;;;;;;;24.46;45.58;100413.56;5092504;28;20225;-73